Hjaltland — VSTY8 — position and weather

sailwx.info

Track history (hours):
 
Tides and Currents Weather Stations Pressure Air Temp Water Temp Dewpoint Dewpoint Depression Visibility Wind Speed Wind Dir Waves Ship Positions

Hjaltland

Operator: NorthLink Orkey & Shetland Ferries Ltd

Last reported at 2019-Jun-16 23:30 UTC. Time now 2019-Jun-17 19:35 UTC.
Position N 59°00' W 002°41'.

Type: Ship. MMSI: 235450000.

Date/timePositionNaut miles runAvg speedWind from/ knotsBaromVisibWave heightAir tempDewpointWater temp
2019-Jun-16 23:30N 59°00' W 002°41'612.4
2019-Jun-16 23:00N 59°01' W 002°53'3 2.5
2019-Jun-16 21:52N 58°60' W 002°58'2 6.7
2019-Jun-16 21:30N 59°01' W 002°54'917.4
2019-Jun-16 21:00N 58°57' W 002°39'1122.1
2019-Jun-16 20:30N 58°47' W 002°30'1222.8
2019-Jun-16 19:59N 58°36' W 002°22'5423.5
2019-Jun-16 17:41N 57°46' W 001°45'525.2
2019-Jun-16 17:30N 57°41' W 001°42'1325.3
2019-Jun-16 17:01N 57°29' W 001°42'1224.8
2019-Jun-16 16:31N 57°18' W 001°52'1122.3
2019-Jun-16 16:00N 57°09' W 002°04'1 1.6
2019-Jun-16 15:30N 57°09' W 002°05'0 0.0
2019-Jun-16 15:00N 57°09' W 002°05'0 0.0
2019-Jun-16 14:30N 57°09' W 002°05'0 0.0
2019-Jun-16 14:00N 57°09' W 002°05'0 0.0
2019-Jun-16 13:30N 57°09' W 002°05'0 0.0
2019-Jun-16 13:00N 57°09' W 002°05'0 0.0
2019-Jun-16 12:30N 57°09' W 002°05'0 0.0
2019-Jun-16 12:00N 57°09' W 002°05'0 0.0
2019-Jun-16 11:30N 57°09' W 002°05'0 0.0
2019-Jun-16 11:00N 57°09' W 002°05'0 0.0
2019-Jun-16 10:30N 57°09' W 002°05'0 0.0
2019-Jun-16 10:00N 57°09' W 002°05'0 0.0
2019-Jun-16 09:30N 57°09' W 002°05'0 0.0
2019-Jun-16 09:00N 57°09' W 002°05'0 0.0
2019-Jun-16 08:30N 57°09' W 002°05'0 0.0
2019-Jun-16 08:00N 57°09' W 002°05'0 0.0
2019-Jun-16 07:30N 57°09' W 002°05'0 0.0
2019-Jun-16 07:00N 57°09' W 002°05'0 0.0
2019-Jun-16 06:30N 57°09' W 002°05'0 0.0
2019-Jun-16 06:00N 57°09' W 002°05'1 1.2
2019-Jun-16 05:30N 57°08' W 002°04'612.5
2019-Jun-16 05:01N 57°13' W 001°57'713.9
2019-Jun-16 04:29N 57°19' W 001°49'611.8
2019-Jun-16 04:00N 57°24' W 001°43'611.4
2019-Jun-16 03:30N 57°29' W 001°38'510.9
2019-Jun-16 03:00N 57°34' W 001°38'712.8
2019-Jun-16 02:28N 57°41' W 001°38'17 0.6
2019-Jun-14 22:14N 57°58' W 001°36'812.4
2019-Jun-14 21:34N 57°50' W 001°36'112.2
2019-Jun-14 21:30N 57°49' W 001°36'612.1
2019-Jun-14 21:00N 57°43' W 001°36'612.2
2019-Jun-14 20:30N 57°37' W 001°37'612.2
2019-Jun-14 20:00N 57°31' W 001°38'612.7
2019-Jun-14 19:30N 57°25' W 001°42'613.2
2019-Jun-14 19:01N 57°19' W 001°48'713.6
2019-Jun-14 18:31N 57°14' W 001°55'713.4
2019-Jun-14 18:00N 57°09' W 002°04'1 1.8
2019-Jun-14 17:31N 57°09' W 002°05'0 0.0
2019-Jun-14 16:59N 57°09' W 002°05'0 0.0
2019-Jun-14 16:29N 57°09' W 002°05'0 0.0
2019-Jun-14 15:59N 57°09' W 002°05'0 0.0
2019-Jun-14 15:29N 57°09' W 002°05'0 0.0
2019-Jun-14 14:59N 57°09' W 002°05'0 0.0
2019-Jun-14 14:29N 57°09' W 002°05'0 0.0
2019-Jun-14 13:59N 57°09' W 002°05'0 0.0
2019-Jun-14 13:29N 57°09' W 002°05'0 0.0
2019-Jun-14 12:59N 57°09' W 002°05'0 0.0
2019-Jun-14 12:29N 57°09' W 002°05'0 0.0
2019-Jun-14 11:59N 57°09' W 002°05'0 0.0
2019-Jun-14 11:29N 57°09' W 002°05'0 0.0
2019-Jun-14 10:59N 57°09' W 002°05'0 0.0
2019-Jun-14 10:29N 57°09' W 002°05'0 0.0
2019-Jun-14 09:59N 57°09' W 002°05'0 0.0
2019-Jun-14 09:29N 57°09' W 002°05'0 0.0
2019-Jun-14 08:59N 57°09' W 002°05'0 0.0
2019-Jun-14 08:29N 57°09' W 002°05'0 0.0
2019-Jun-14 07:59N 57°09' W 002°05'0 0.0
2019-Jun-14 07:29N 57°09' W 002°05'0 0.0
2019-Jun-14 06:59N 57°09' W 002°05'0 0.0
2019-Jun-14 06:29N 57°09' W 002°05'0 0.0
2019-Jun-14 05:59N 57°09' W 002°05'1 1.3
2019-Jun-14 05:31N 57°08' W 002°04'612.3
2019-Jun-14 05:00N 57°13' W 001°56'815.3
2019-Jun-14 04:29N 57°19' W 001°47'510.7
2019-Jun-14 04:00N 57°23' W 001°42'611.4
2019-Jun-14 03:30N 57°28' W 001°37'713.9
2019-Jun-14 03:00N 57°35' W 001°37'6 0.2
2019-Jun-12 20:44N 57°41' W 001°33'313.7
2019-Jun-12 20:30N 57°38' W 001°35'713.3
2019-Jun-12 20:00N 57°32' W 001°36'713.1
2019-Jun-12 19:30N 57°25' W 001°39'713.7
2019-Jun-12 19:00N 57°19' W 001°46'715.0
2019-Jun-12 18:31N 57°13' W 001°53'714.4
2019-Jun-12 18:00N 57°09' W 002°04'1 1.8
2019-Jun-12 17:29N 57°09' W 002°05'0 0.0
2019-Jun-12 16:59N 57°09' W 002°05'0 0.0
2019-Jun-12 16:29N 57°09' W 002°05'0 0.0
2019-Jun-12 15:59N 57°09' W 002°05'0 0.0
2019-Jun-12 15:29N 57°09' W 002°05'0 0.0
2019-Jun-12 14:57N 57°09' W 002°05'0 0.0
2019-Jun-12 14:29N 57°09' W 002°05'0 0.0
2019-Jun-12 14:00N 57°09' W 002°05'0 0.0
2019-Jun-12 13:30N 57°09' W 002°05'0 0.0
2019-Jun-12 13:00N 57°09' W 002°05'0 0.0
2019-Jun-12 12:30N 57°09' W 002°05'0 0.0
2019-Jun-12 12:00N 57°09' W 002°05'0 0.0
2019-Jun-12 11:30N 57°09' W 002°05'0 0.0
2019-Jun-12 11:00N 57°09' W 002°05'0 0.0
2019-Jun-12 10:30N 57°09' W 002°05'0 0.0
2019-Jun-12 10:00N 57°09' W 002°05'0 0.0
2019-Jun-12 09:30N 57°09' W 002°05'0 0.0
2019-Jun-12 09:00N 57°09' W 002°05'0 0.0
2019-Jun-12 08:30N 57°09' W 002°05'0 0.0
2019-Jun-12 08:00N 57°09' W 002°05'0 0.0
2019-Jun-12 07:30N 57°09' W 002°05'0 0.0
2019-Jun-12 07:00N 57°09' W 002°05'0 0.0
2019-Jun-12 06:30N 57°09' W 002°05'0 0.0
2019-Jun-12 06:00N 57°09' W 002°05'0 0.9
2019-Jun-12 05:30N 57°09' W 002°05'4 8.5
2019-Jun-12 05:00N 57°11' W 001°58'1417.6
2019-Jun-12 04:13N 57°23' W 001°45'417.7
2019-Jun-12 04:01N 57°26' W 001°41'2 4.6
2019-Jun-12 03:30N 57°28' W 001°38'713.4
2019-Jun-12 03:00N 57°34' W 001°35'1312.5
2019-Jun-12 02:00N 57°47' W 001°34'5 0.2
2019-Jun-10 21:49N 57°51' W 001°37'413.5
2019-Jun-10 21:30N 57°47' W 001°38'713.2
2019-Jun-10 21:00N 57°40' W 001°39'612.9
2019-Jun-10 20:30N 57°34' W 001°40'612.3
2019-Jun-10 20:00N 57°28' W 001°42'612.4
2019-Jun-10 19:30N 57°22' W 001°46'612.1
2019-Jun-10 19:00N 57°17' W 001°51'612.7
2019-Jun-10 18:30N 57°12' W 001°59'4 9.0
2019-Jun-10 18:00N 57°09' W 002°05'0 0.7
2019-Jun-10 17:30N 57°09' W 002°05'0 0.0
2019-Jun-10 16:57N 57°09' W 002°05'0 0.0
2019-Jun-10 16:30N 57°09' W 002°05'0 0.0
2019-Jun-10 16:00N 57°09' W 002°05'0 0.0
2019-Jun-10 15:27N 57°09' W 002°05'0 0.0
2019-Jun-10 14:57N 57°09' W 002°05'0 0.0
2019-Jun-10 14:28N 57°09' W 002°05'0 0.0
2019-Jun-10 14:00N 57°09' W 002°05'0 0.0
2019-Jun-10 13:28N 57°09' W 002°05'0 0.0
2019-Jun-10 12:58N 57°09' W 002°05'0 0.0
2019-Jun-10 12:30N 57°09' W 002°05'0 0.0
2019-Jun-10 12:01N 57°09' W 002°05'0 0.0
2019-Jun-10 11:31N 57°09' W 002°05'0 0.0
2019-Jun-10 10:58N 57°09' W 002°05'0 0.0
2019-Jun-10 10:28N 57°09' W 002°05'0 0.0
2019-Jun-10 09:57N 57°09' W 002°05'0 0.0
2019-Jun-10 09:30N 57°09' W 002°05'0 0.0
2019-Jun-10 09:00N 57°09' W 002°05'0 0.0
2019-Jun-10 08:31N 57°09' W 002°05'0 0.0
2019-Jun-10 07:57N 57°09' W 002°05'0 0.0
2019-Jun-10 07:30N 57°09' W 002°05'0 0.0
2019-Jun-10 06:58N 57°09' W 002°05'0 0.0
2019-Jun-10 06:27N 57°09' W 002°05'0 0.0
2019-Jun-10 05:55N 57°09' W 002°05'1 1.6
2019-Jun-10 05:31N 57°08' W 002°04'611.9
2019-Jun-10 05:00N 57°13' W 001°57'712.1
2019-Jun-10 04:27N 57°18' W 001°50'612.0
2019-Jun-10 03:59N 57°23' W 001°44'613.8
2019-Jun-10 03:30N 57°29' W 001°38'918.2
2019-Jun-10 03:01N 57°38' W 001°38'93 3.4
2019-Jun-08 23:21N 59°01' W 002°57'0 0.3
2019-Jun-08 21:47N 59°01' W 002°58'621.0
2019-Jun-08 21:30N 58°60' W 002°46'8023.0
2019-Jun-08 18:01N 57°46' W 001°47'122.5
2019-Jun-08 17:59N 57°45' W 001°46'1021.7
2019-Jun-08 17:30N 57°35' W 001°43'1021.0
2019-Jun-08 17:01N 57°25' W 001°45'1121.5
2019-Jun-08 16:31N 57°15' W 001°54'917.7
2019-Jun-08 16:00N 57°08' W 002°04'1 1.1
2019-Jun-08 15:29N 57°09' W 002°05'0 0.0
2019-Jun-08 14:59N 57°09' W 002°05'0 0.0
2019-Jun-08 14:29N 57°09' W 002°05'0 0.0
2019-Jun-08 13:59N 57°09' W 002°05'0 0.0
2019-Jun-08 13:29N 57°09' W 002°05'0 0.0
2019-Jun-08 12:59N 57°09' W 002°05'0 0.0
2019-Jun-08 12:29N 57°09' W 002°05'0 0.0
2019-Jun-08 11:59N 57°09' W 002°05'0 0.0
2019-Jun-08 11:29N 57°09' W 002°05'0 0.0
2019-Jun-08 10:59N 57°09' W 002°05'0 0.0
2019-Jun-08 10:29N 57°09' W 002°05'0 0.0
2019-Jun-08 09:59N 57°09' W 002°05'0 0.0
2019-Jun-08 09:29N 57°09' W 002°05'0 0.0
2019-Jun-08 08:59N 57°09' W 002°05'0 0.0
2019-Jun-08 08:29N 57°09' W 002°05'0 0.0
2019-Jun-08 07:59N 57°09' W 002°05'0 0.0
2019-Jun-08 07:29N 57°09' W 002°05'0 0.0
2019-Jun-08 06:59N 57°09' W 002°05'0 0.0
2019-Jun-08 06:29N 57°09' W 002°05'0 0.0
2019-Jun-08 06:00N 57°09' W 002°05'0 1.0
2019-Jun-08 05:31N 57°09' W 002°05'4 7.2
2019-Jun-08 05:00N 57°11' W 001°59'714.4
2019-Jun-08 04:30N 57°17' W 001°52'1019.8
2019-Jun-08 04:00N 57°25' W 001°42'1020.8
2019-Jun-08 03:30N 57°35' W 001°40'2621.4
2019-Jun-08 02:18N 57°60' W 001°55'1521.8
2019-Jun-08 01:36N 58°14' W 002°06'222.0
2019-Jun-08 01:30N 58°16' W 002°07'5220.5
2019-Jun-07 22:58N 59°01' W 002°57'1 0.5
2019-Jun-07 21:15N 59°01' W 002°58'2 0.1
2019-Jun-06 23:24N 59°01' W 002°54'  
Track history (hours):
 
Tides and Currents Weather Stations Pressure Air Temp Water Temp Dewpoint Dewpoint Depression Visibility Wind Speed Wind Dir Waves Ship Positions

Hjaltland

Operator: NorthLink Orkey & Shetland Ferries Ltd

Last reported at 2019-Jun-16 23:30 UTC. Time now 2019-Jun-17 19:35 UTC.
Position N 59°00' W 002°41'.

Type: Ship. MMSI: 235450000.

Date/timePositionNaut miles runAvg speedWind from/ knotsBaromVisibWave heightAir tempDewpointWater temp
2019-Jun-16 23:30N 59°00' W 002°41'612.4
2019-Jun-16 23:00N 59°01' W 002°53'3 2.5
2019-Jun-16 21:52N 58°60' W 002°58'2 6.7
2019-Jun-16 21:30N 59°01' W 002°54'917.4
2019-Jun-16 21:00N 58°57' W 002°39'1122.1
2019-Jun-16 20:30N 58°47' W 002°30'1222.8
2019-Jun-16 19:59N 58°36' W 002°22'5423.5
2019-Jun-16 17:41N 57°46' W 001°45'525.2
2019-Jun-16 17:30N 57°41' W 001°42'1325.3
2019-Jun-16 17:01N 57°29' W 001°42'1224.8
2019-Jun-16 16:31N 57°18' W 001°52'1122.3
2019-Jun-16 16:00N 57°09' W 002°04'1 1.6
2019-Jun-16 15:30N 57°09' W 002°05'0 0.0
2019-Jun-16 15:00N 57°09' W 002°05'0 0.0
2019-Jun-16 14:30N 57°09' W 002°05'0 0.0
2019-Jun-16 14:00N 57°09' W 002°05'0 0.0
2019-Jun-16 13:30N 57°09' W 002°05'0 0.0
2019-Jun-16 13:00N 57°09' W 002°05'0 0.0
2019-Jun-16 12:30N 57°09' W 002°05'0 0.0
2019-Jun-16 12:00N 57°09' W 002°05'0 0.0
2019-Jun-16 11:30N 57°09' W 002°05'0 0.0
2019-Jun-16 11:00N 57°09' W 002°05'0 0.0
2019-Jun-16 10:30N 57°09' W 002°05'0 0.0
2019-Jun-16 10:00N 57°09' W 002°05'0 0.0
2019-Jun-16 09:30N 57°09' W 002°05'0 0.0
2019-Jun-16 09:00N 57°09' W 002°05'0 0.0
2019-Jun-16 08:30N 57°09' W 002°05'0 0.0
2019-Jun-16 08:00N 57°09' W 002°05'0 0.0
2019-Jun-16 07:30N 57°09' W 002°05'0 0.0
2019-Jun-16 07:00N 57°09' W 002°05'0 0.0
2019-Jun-16 06:30N 57°09' W 002°05'0 0.0
2019-Jun-16 06:00N 57°09' W 002°05'1 1.2
2019-Jun-16 05:30N 57°08' W 002°04'612.5
2019-Jun-16 05:01N 57°13' W 001°57'713.9
2019-Jun-16 04:29N 57°19' W 001°49'611.8
2019-Jun-16 04:00N 57°24' W 001°43'611.4
2019-Jun-16 03:30N 57°29' W 001°38'510.9
2019-Jun-16 03:00N 57°34' W 001°38'712.8
2019-Jun-16 02:28N 57°41' W 001°38'17 0.6
2019-Jun-14 22:14N 57°58' W 001°36'812.4
2019-Jun-14 21:34N 57°50' W 001°36'112.2
2019-Jun-14 21:30N 57°49' W 001°36'612.1
2019-Jun-14 21:00N 57°43' W 001°36'612.2
2019-Jun-14 20:30N 57°37' W 001°37'612.2
2019-Jun-14 20:00N 57°31' W 001°38'612.7
2019-Jun-14 19:30N 57°25' W 001°42'613.2
2019-Jun-14 19:01N 57°19' W 001°48'713.6
2019-Jun-14 18:31N 57°14' W 001°55'713.4
2019-Jun-14 18:00N 57°09' W 002°04'1 1.8
2019-Jun-14 17:31N 57°09' W 002°05'0 0.0
2019-Jun-14 16:59N 57°09' W 002°05'0 0.0
2019-Jun-14 16:29N 57°09' W 002°05'0 0.0
2019-Jun-14 15:59N 57°09' W 002°05'0 0.0
2019-Jun-14 15:29N 57°09' W 002°05'0 0.0
2019-Jun-14 14:59N 57°09' W 002°05'0 0.0
2019-Jun-14 14:29N 57°09' W 002°05'0 0.0
2019-Jun-14 13:59N 57°09' W 002°05'0 0.0
2019-Jun-14 13:29N 57°09' W 002°05'0 0.0
2019-Jun-14 12:59N 57°09' W 002°05'0 0.0
2019-Jun-14 12:29N 57°09' W 002°05'0 0.0
2019-Jun-14 11:59N 57°09' W 002°05'0 0.0
2019-Jun-14 11:29N 57°09' W 002°05'0 0.0
2019-Jun-14 10:59N 57°09' W 002°05'0 0.0
2019-Jun-14 10:29N 57°09' W 002°05'0 0.0
2019-Jun-14 09:59N 57°09' W 002°05'0 0.0
2019-Jun-14 09:29N 57°09' W 002°05'0 0.0
2019-Jun-14 08:59N 57°09' W 002°05'0 0.0
2019-Jun-14 08:29N 57°09' W 002°05'0 0.0
2019-Jun-14 07:59N 57°09' W 002°05'0 0.0
2019-Jun-14 07:29N 57°09' W 002°05'0 0.0
2019-Jun-14 06:59N 57°09' W 002°05'0 0.0
2019-Jun-14 06:29N 57°09' W 002°05'0 0.0
2019-Jun-14 05:59N 57°09' W 002°05'1 1.3
2019-Jun-14 05:31N 57°08' W 002°04'612.3
2019-Jun-14 05:00N 57°13' W 001°56'815.3
2019-Jun-14 04:29N 57°19' W 001°47'510.7
2019-Jun-14 04:00N 57°23' W 001°42'611.4
2019-Jun-14 03:30N 57°28' W 001°37'713.9
2019-Jun-14 03:00N 57°35' W 001°37'6 0.2
2019-Jun-12 20:44N 57°41' W 001°33'313.7
2019-Jun-12 20:30N 57°38' W 001°35'713.3
2019-Jun-12 20:00N 57°32' W 001°36'713.1
2019-Jun-12 19:30N 57°25' W 001°39'713.7
2019-Jun-12 19:00N 57°19' W 001°46'715.0
2019-Jun-12 18:31N 57°13' W 001°53'714.4
2019-Jun-12 18:00N 57°09' W 002°04'1 1.8
2019-Jun-12 17:29N 57°09' W 002°05'0 0.0
2019-Jun-12 16:59N 57°09' W 002°05'0 0.0
2019-Jun-12 16:29N 57°09' W 002°05'0 0.0
2019-Jun-12 15:59N 57°09' W 002°05'0 0.0
2019-Jun-12 15:29N 57°09' W 002°05'0 0.0
2019-Jun-12 14:57N 57°09' W 002°05'0 0.0
2019-Jun-12 14:29N 57°09' W 002°05'0 0.0
2019-Jun-12 14:00N 57°09' W 002°05'0 0.0
2019-Jun-12 13:30N 57°09' W 002°05'0 0.0
2019-Jun-12 13:00N 57°09' W 002°05'0 0.0
2019-Jun-12 12:30N 57°09' W 002°05'0 0.0
2019-Jun-12 12:00N 57°09' W 002°05'0 0.0
2019-Jun-12 11:30N 57°09' W 002°05'0 0.0
2019-Jun-12 11:00N 57°09' W 002°05'0 0.0
2019-Jun-12 10:30N 57°09' W 002°05'0 0.0
2019-Jun-12 10:00N 57°09' W 002°05'0 0.0
2019-Jun-12 09:30N 57°09' W 002°05'0 0.0
2019-Jun-12 09:00N 57°09' W 002°05'0 0.0
2019-Jun-12 08:30N 57°09' W 002°05'0 0.0
2019-Jun-12 08:00N 57°09' W 002°05'0 0.0
2019-Jun-12 07:30N 57°09' W 002°05'0 0.0
2019-Jun-12 07:00N 57°09' W 002°05'0 0.0
2019-Jun-12 06:30N 57°09' W 002°05'0 0.0
2019-Jun-12 06:00N 57°09' W 002°05'0 0.9
2019-Jun-12 05:30N 57°09' W 002°05'4 8.5
2019-Jun-12 05:00N 57°11' W 001°58'1417.6
2019-Jun-12 04:13N 57°23' W 001°45'417.7
2019-Jun-12 04:01N 57°26' W 001°41'2 4.6
2019-Jun-12 03:30N 57°28' W 001°38'713.4
2019-Jun-12 03:00N 57°34' W 001°35'1312.5
2019-Jun-12 02:00N 57°47' W 001°34'5 0.2
2019-Jun-10 21:49N 57°51' W 001°37'413.5
2019-Jun-10 21:30N 57°47' W 001°38'713.2
2019-Jun-10 21:00N 57°40' W 001°39'612.9
2019-Jun-10 20:30N 57°34' W 001°40'612.3
2019-Jun-10 20:00N 57°28' W 001°42'612.4
2019-Jun-10 19:30N 57°22' W 001°46'612.1
2019-Jun-10 19:00N 57°17' W 001°51'612.7
2019-Jun-10 18:30N 57°12' W 001°59'4 9.0
2019-Jun-10 18:00N 57°09' W 002°05'0 0.7
2019-Jun-10 17:30N 57°09' W 002°05'0 0.0
2019-Jun-10 16:57N 57°09' W 002°05'0 0.0
2019-Jun-10 16:30N 57°09' W 002°05'0 0.0
2019-Jun-10 16:00N 57°09' W 002°05'0 0.0
2019-Jun-10 15:27N 57°09' W 002°05'0 0.0
2019-Jun-10 14:57N 57°09' W 002°05'0 0.0
2019-Jun-10 14:28N 57°09' W 002°05'0 0.0
2019-Jun-10 14:00N 57°09' W 002°05'0 0.0
2019-Jun-10 13:28N 57°09' W 002°05'0 0.0
2019-Jun-10 12:58N 57°09' W 002°05'0 0.0
2019-Jun-10 12:30N 57°09' W 002°05'0 0.0
2019-Jun-10 12:01N 57°09' W 002°05'0 0.0
2019-Jun-10 11:31N 57°09' W 002°05'0 0.0
2019-Jun-10 10:58N 57°09' W 002°05'0 0.0
2019-Jun-10 10:28N 57°09' W 002°05'0 0.0
2019-Jun-10 09:57N 57°09' W 002°05'0 0.0
2019-Jun-10 09:30N 57°09' W 002°05'0 0.0
2019-Jun-10 09:00N 57°09' W 002°05'0 0.0
2019-Jun-10 08:31N 57°09' W 002°05'0 0.0
2019-Jun-10 07:57N 57°09' W 002°05'0 0.0
2019-Jun-10 07:30N 57°09' W 002°05'0 0.0
2019-Jun-10 06:58N 57°09' W 002°05'0 0.0
2019-Jun-10 06:27N 57°09' W 002°05'0 0.0
2019-Jun-10 05:55N 57°09' W 002°05'1 1.6
2019-Jun-10 05:31N 57°08' W 002°04'611.9
2019-Jun-10 05:00N 57°13' W 001°57'712.1
2019-Jun-10 04:27N 57°18' W 001°50'612.0
2019-Jun-10 03:59N 57°23' W 001°44'613.8
2019-Jun-10 03:30N 57°29' W 001°38'918.2
2019-Jun-10 03:01N 57°38' W 001°38'93 3.4
2019-Jun-08 23:21N 59°01' W 002°57'0 0.3
2019-Jun-08 21:47N 59°01' W 002°58'621.0
2019-Jun-08 21:30N 58°60' W 002°46'8023.0
2019-Jun-08 18:01N 57°46' W 001°47'122.5
2019-Jun-08 17:59N 57°45' W 001°46'1021.7
2019-Jun-08 17:30N 57°35' W 001°43'1021.0
2019-Jun-08 17:01N 57°25' W 001°45'1121.5
2019-Jun-08 16:31N 57°15' W 001°54'917.7
2019-Jun-08 16:00N 57°08' W 002°04'1 1.1
2019-Jun-08 15:29N 57°09' W 002°05'0 0.0
2019-Jun-08 14:59N 57°09' W 002°05'0 0.0
2019-Jun-08 14:29N 57°09' W 002°05'0 0.0
2019-Jun-08 13:59N 57°09' W 002°05'0 0.0
2019-Jun-08 13:29N 57°09' W 002°05'0 0.0
2019-Jun-08 12:59N 57°09' W 002°05'0 0.0
2019-Jun-08 12:29N 57°09' W 002°05'0 0.0
2019-Jun-08 11:59N 57°09' W 002°05'0 0.0
2019-Jun-08 11:29N 57°09' W 002°05'0 0.0
2019-Jun-08 10:59N 57°09' W 002°05'0 0.0
2019-Jun-08 10:29N 57°09' W 002°05'0 0.0
2019-Jun-08 09:59N 57°09' W 002°05'0 0.0
2019-Jun-08 09:29N 57°09' W 002°05'0 0.0
2019-Jun-08 08:59N 57°09' W 002°05'0 0.0
2019-Jun-08 08:29N 57°09' W 002°05'0 0.0
2019-Jun-08 07:59N 57°09' W 002°05'0 0.0
2019-Jun-08 07:29N 57°09' W 002°05'0 0.0
2019-Jun-08 06:59N 57°09' W 002°05'0 0.0
2019-Jun-08 06:29N 57°09' W 002°05'0 0.0
2019-Jun-08 06:00N 57°09' W 002°05'0 1.0
2019-Jun-08 05:31N 57°09' W 002°05'4 7.2
2019-Jun-08 05:00N 57°11' W 001°59'714.4
2019-Jun-08 04:30N 57°17' W 001°52'1019.8
2019-Jun-08 04:00N 57°25' W 001°42'1020.8
2019-Jun-08 03:30N 57°35' W 001°40'2621.4
2019-Jun-08 02:18N 57°60' W 001°55'1521.8
2019-Jun-08 01:36N 58°14' W 002°06'222.0
2019-Jun-08 01:30N 58°16' W 002°07'5220.5
2019-Jun-07 22:58N 59°01' W 002°57'1 0.5
2019-Jun-07 21:15N 59°01' W 002°58'2 0.1
2019-Jun-06 23:24N 59°01' W 002°54'  

Dump ship's entire track history